Latest Weather Observations for Hopetoun North

IDW60801

Issued at 1:02 pm WST Friday 28 August 2015 (issued every 30 minutes, with the page automatically refreshed every 10 minutes)

About weather observations | Map of weather stations | Latest weather observations for WA | Other Formats
Station Details ID: 009961 Name: HOPETOUN NORTH Lat: -33.93 Lon: 120.13 Height: 26.0 m
Data from the previous 72 hours. | See also: Recent months at Hopetoun North
Date/Time
WST
Temp
°C
App
Temp
°C
Dew
Point
Rel
Hum
%
Delta-T
°C
Wind Press
QNH
hPa
Press
MSL
hPa
Rain
since 9 am
mm
Dir
 
Spd
km/h
Gust
km/h
Spd
kts
Gust
kts
28/01:00pm 22.2 16.0 2.3 27 9.4 NNW 24 33 13 18 1013.6 1013.6 0.0
28/12:30pm 22.1 17.0 2.8 28 9.2 N 19 33 10 18 1014.1 1014.1 0.0
28/12:00pm 21.3 16.4 2.1 28 8.9 N 17 26 9 14 1014.7 1014.7 0.0
28/11:30am 20.9 15.6 1.7 28 8.8 NNW 19 30 10 16 1015.3 1015.3 0.0
28/11:00am 20.3 15.4 1.7 29 8.5 N 17 28 9 15 1015.6 1015.5 0.0
28/10:30am 18.9 12.1 0.5 29 8.1 NNE 26 35 14 19 1015.8 1015.7 0.0
28/10:00am 18.1 10.9 0.7 31 7.7 N 28 43 15 23 1015.9 1015.8 0.0
28/09:30am 17.0 10.2 0.6 33 7.1 NNE 26 35 14 19 1016.3 1016.2 0.0
28/09:00am 15.7 8.5 0.7 36 6.5 NNE 28 39 15 21 1016.5 1016.5 0.0
28/08:30am 14.6 8.2 1.2 40 5.8 NNE 24 33 13 18 1016.9 1016.9 0.0
28/08:00am 12.2 6.8 1.2 47 4.6 NNE 19 28 10 15 1016.9 1016.9 0.0
28/07:30am 11.7 6.3 1.4 49 4.4 NNE 19 26 10 14 1016.8 1016.8 0.0
28/07:00am 11.4 6.0 1.1 49 4.3 NNE 19 24 10 13 1016.7 1016.7 0.0
28/06:30am 11.0 5.6 1.0 50 4.2 NNE 19 24 10 13 1016.6 1016.6 0.0
28/06:00am 11.1 5.5 1.1 50 4.2 NNE 20 28 11 15 1016.5 1016.5 0.0
28/05:30am 11.4 5.8 1.1 49 4.3 NNE 20 30 11 16 1016.3 1016.2 0.0
28/05:00am 11.7 5.7 1.1 48 4.4 NNE 22 33 12 18 1016.2 1016.1 0.0
28/04:30am 11.6 6.2 1.3 49 4.3 NNE 19 26 10 14 1016.4 1016.3 0.0
28/04:00am 11.7 6.1 1.1 48 4.4 NNE 20 30 11 16 1016.4 1016.3 0.0
28/03:30am 11.8 5.8 1.2 48 4.5 NNE 22 28 12 15 1016.3 1016.2 0.0
28/03:00am 11.1 6.2 1.9 53 3.9 NE 17 24 9 13 1016.7 1016.7 0.0
28/02:30am 10.9 6.8 2.2 55 3.7 NE 13 17 7 9 1017.1 1017.1 0.0
28/02:00am 11.0 6.1 2.3 55 3.7 NE 17 22 9 12 1017.4 1017.4 0.0
28/01:30am 11.1 5.7 2.7 56 3.6 NE 20 26 11 14 1017.4 1017.4 0.0
28/01:00am 11.1 6.4 3.2 58 3.4 NE 17 24 9 13 1017.9 1017.9 0.0
28/12:30am 11.2 6.1 3.0 57 3.6 NE 19 28 10 15 1018.0 1018.0 0.0
28/12:00am 11.3 6.2 3.1 57 3.6 NE 19 26 10 14 1018.2 1018.2 0.0
 
Date/Time
WST
Temp
°C
App
Temp
°C
Dew
Point
Rel
Hum
%
Delta-T
°C
Wind Press
QNH
hPa
Press
MSL
hPa
Rain
since 9 am
mm
Dir
 
Spd
km/h
Gust
km/h
Spd
kts
Gust
kts
27/11:30pm 10.9 6.3 3.5 60 3.3 NE 17 22 9 12 1018.5 1018.5 0.0
27/11:00pm 10.9 6.0 3.9 62 3.1 NE 19 24 10 13 1018.7 1018.7 0.0
27/10:30pm 10.9 5.3 3.7 61 3.2 NE 22 28 12 15 1019.0 1019.0 0.0
27/10:00pm 10.9 5.4 3.9 62 3.1 NE 22 30 12 16 1019.1 1019.1 0.0
27/09:30pm 11.0 6.2 4.5 64 2.9 NE 19 26 10 14 1019.3 1019.3 0.0
27/09:00pm 11.6 7.1 4.3 61 3.3 NE 17 24 9 13 1019.5 1019.5 0.0
27/08:30pm 11.7 6.8 4.2 60 3.4 NE 19 24 10 13 1019.6 1019.6 0.0
27/08:00pm 12.2 7.4 4.7 60 3.4 NE 19 26 10 14 1019.5 1019.5 0.0
27/07:30pm 11.9 6.9 4.4 60 3.4 NE 20 28 11 15 1019.4 1019.4 0.0
27/07:00pm 12.7 7.8 4.2 56 3.8 ENE 19 28 10 15 1019.4 1019.4 0.0
27/06:30pm 13.6 8.5 3.9 52 4.4 ENE 20 28 11 15 1019.2 1019.2 0.0
27/06:00pm 14.1 8.9 3.3 48 4.8 ENE 20 33 11 18 1019.0 1019.0 0.0
27/05:30pm 14.8 9.8 3.6 47 5.1 ENE 19 28 10 15 1018.9 1018.9 0.0
27/05:00pm 15.8 11.8 2.9 42 5.8 ENE 13 20 7 11 1018.8 1018.8 0.0
27/04:30pm 17.4 12.1 1.8 35 7.0 ENE 19 32 10 17 1018.6 1018.6 0.0
27/04:00pm 18.5 12.0 0.2 29 8.0 NE 24 32 13 17 1018.6 1018.6 0.0
27/03:30pm 18.5 13.4 0.6 30 7.9 NE 17 24 9 13 1018.8 1018.8 0.0
27/03:00pm 19.3 14.1 -0.1 27 8.5 NNE 17 24 9 13 1018.9 1018.9 0.0
27/02:30pm 18.9 13.8 1.0 30 8.0 NE 17 24 9 13 1019.0 1019.0 0.0
27/02:00pm 19.0 13.2 0.1 28 8.3 NE 20 30 11 16 1019.1 1019.1 0.0
27/01:30pm 19.0 13.3 0.6 29 8.2 NNE 20 28 11 15 1019.4 1019.4 0.0
27/01:00pm 18.5 12.4 0.6 30 7.9 NE 22 32 12 17 1020.0 1020.0 0.0
27/12:30pm 18.7 13.1 1.2 31 7.8 NE 20 32 11 17 1020.3 1020.3 0.0
27/12:00pm 18.6 13.1 2.0 33 7.5 NNE 20 28 11 15 1020.8 1020.8 0.0
27/11:30am 17.9 12.6 1.8 34 7.3 NNE 19 28 10 15 1021.3 1021.3 0.0
27/11:00am 17.3 11.5 2.1 36 6.8 NNE 22 32 12 17 1021.7 1021.7 0.0
27/10:30am 16.5 9.8 1.4 36 6.7 NNE 26 33 14 18 1021.7 1021.7 0.0
27/10:00am 15.7 10.4 2.8 42 5.8 NNE 20 32 11 17 1022.0 1022.0 0.0
27/09:30am 14.6 9.5 3.1 46 5.2 N 19 26 10 14 1022.1 1022.1 0.0
27/09:00am 12.7 7.8 3.9 55 3.9 NNE 19 30 10 16 1022.2 1022.2 0.0
27/08:30am 10.6 6.4 3.9 63 3.0 NNE 15 22 8 12 1022.3 1022.3 0.0
27/08:00am 9.3 4.5 2.6 63 2.8 NNE 17 22 9 12 1022.4 1022.4 0.0
27/07:30am 7.5 3.4 2.4 70 2.1 NNE 13 19 7 10 1022.2 1022.2 0.0
27/07:00am 5.4 1.3 2.2 80 1.3 NNE 13 15 7 8 1022.0 1022.0 0.0
27/06:30am 4.7 1.0 2.2 84 1.0 NNE 11 13 6 7 1021.6 1021.6 0.0
27/06:00am 4.0 0.3 2.2 88 0.7 NNE 11 13 6 7 1021.4 1021.4 0.0
27/05:30am 4.0 0.3 2.5 90 0.6 NNE 11 13 6 7 1021.3 1021.3 0.0
27/05:00am 3.2 -0.5 2.5 95 0.3 NE 11 13 6 7 1021.1 1021.1 0.0
27/04:30am 3.1 -0.2 2.5 96 0.2 NE 9 11 5 6 1021.2 1021.2 0.0
27/04:00am 3.3 0.0 2.4 94 0.4 NE 9 11 5 6 1021.0 1021.0 0.0
27/03:30am 4.0 1.1 2.8 92 0.5 NE 7 9 4 5 1021.1 1021.1 0.0
27/03:00am 4.3 1.1 3.3 93 0.4 ENE 9 11 5 6 1021.1 1021.1 0.0
27/02:30am 5.7 2.6 3.4 85 1.0 NE 9 11 5 6 1021.1 1021.1 0.0
27/02:00am 5.6 2.8 3.1 84 1.0 NE 7 9 4 5 1021.3 1021.3 0.0
27/01:30am 6.3 3.7 4.3 87 0.9 N 7 9 4 5 1021.5 1021.5 0.0
27/01:00am 6.2 3.2 4.2 87 0.9 NE 9 11 5 6 1021.7 1021.7 0.0
27/12:30am 7.0 4.5 4.7 85 1.0 NE 7 9 4 5 1021.8 1021.8 0.0
27/12:00am 6.8 4.3 4.6 86 1.0 NNE 7 9 4 5 1021.8 1021.8 0.0
 
Date/Time
WST
Temp
°C
App
Temp
°C
Dew
Point
Rel
Hum
%
Delta-T
°C
Wind Press
QNH
hPa
Press
MSL
hPa
Rain
since 9 am
mm
Dir
 
Spd
km/h
Gust
km/h
Spd
kts
Gust
kts
26/11:30pm 7.1 4.8 5.7 91 0.6 NE 7 9 4 5 1021.9 1021.9 0.0
26/11:00pm 8.0 6.0 6.3 89 0.8 NNE 6 7 3 4 1022.0 1022.0 0.0
26/10:30pm 8.2 6.3 6.7 90 0.7 NNE 6 6 3 3 1022.2 1022.2 0.0
26/10:00pm 7.7 5.7 6.3 91 0.6 NNE 6 6 3 3 1022.2 1022.2 0.0
26/09:30pm 8.0 5.4 6.3 89 0.8 NNE 9 11 5 6 1022.4 1022.4 0.0
26/09:00pm 8.2 6.0 6.3 88 0.9 NNE 7 9 4 5 1022.4 1022.4 0.0
26/08:30pm 8.7 6.1 6.3 85 1.1 ENE 9 11 5 6 1022.3 1022.3 0.0
26/08:00pm 9.0 6.4 6.1 82 1.3 ENE 9 11 5 6 1022.4 1022.4 0.0
26/07:30pm 10.1 7.6 6.4 78 1.7 ENE 9 11 5 6 1022.3 1022.3 0.0
26/07:00pm 11.1 8.5 6.3 72 2.2 ENE 9 13 5 7 1022.2 1022.2 0.0
26/06:30pm 11.5 8.4 5.4 66 2.8 E 11 17 6 9 1022.0 1022.0 0.0
26/06:00pm 12.6 9.2 6.0 64 3.1 E 13 17 7 9 1021.8 1021.8 0.0
26/05:30pm 12.5 9.2 6.3 66 2.9 E 13 20 7 11 1021.6 1021.6 0.0
26/05:00pm 13.0 9.7 6.4 64 3.1 ESE 13 19 7 10 1021.4 1021.4 0.0
26/04:30pm 13.4 9.7 6.3 62 3.4 ESE 15 19 8 10 1021.1 1021.1 0.0
26/04:00pm 14.3 11.2 5.7 56 4.1 SE 11 15 6 8 1021.0 1021.0 0.0
26/03:30pm 14.3 12.0 5.7 56 4.1 SE 7 13 4 7 1021.0 1021.0 0.0
26/03:00pm 14.8 12.8 4.5 50 4.8 ESE 4 9 2 5 1020.9 1020.9 0.0
26/02:30pm 15.6 12.5 0.2 35 6.6 N 6 9 3 5 1020.9 1020.9 0.0
26/02:00pm 16.5 13.2 0.2 33 7.0 NW 7 17 4 9 1020.9 1020.9 0.0
26/01:30pm 16.7 13.0 -0.1 32 7.2 N 9 17 5 9 1020.9 1020.9 0.0
26/01:00pm 16.1 12.5 0.7 35 6.6 NNE 9 15 5 8 1021.5 1021.5 0.0
26/12:30pm 16.4 13.4 0.9 35 6.8 NNE 6 17 3 9 1022.0 1022.0 0.0
26/12:00pm 16.0 12.0 0.6 35 6.6 N 11 19 6 10 1022.5 1022.5 0.0
26/11:30am 15.4 11.6 1.5 39 6.1 N 11 22 6 12 1022.8 1022.8 0.0
26/11:00am 15.4 10.4 1.2 38 6.1 N 17 24 9 13 1023.1 1023.1 0.0
26/10:30am 14.4 10.5 3.2 47 5.0 N 13 22 7 12 1023.6 1023.6 0.0
26/10:00am 14.3 9.5 4.6 52 4.5 N 19 24 10 13 1024.0 1024.0 0.0
26/09:30am 12.8 8.0 4.8 58 3.7 N 19 32 10 17 1024.1 1024.1 0.0
26/09:00am 11.9 8.2 6.2 68 2.7 N 15 24 8 13 1024.3 1024.3 0.2
26/08:30am 9.8 5.6 5.8 76 1.8 N 17 24 9 13 1024.4 1024.4 0.2
26/08:00am 8.0 4.0 4.8 80 1.4 N 15 20 8 11 1024.4 1024.4 0.2
26/07:30am 6.8 2.7 4.3 84 1.1 NNE 15 20 8 11 1024.4 1024.4 0.2
26/07:00am 4.7 1.3 3.8 94 0.4 NNE 11 17 6 9 1024.4 1024.4 0.2
26/06:30am 3.4 -0.6 2.7 95 0.3 NNE 13 15 7 8 1024.2 1024.2 0.2
26/06:00am 3.9 0.3 3.2 95 0.3 NNE 11 15 6 8 1024.1 1024.1 0.2
26/05:30am 4.1 0.5 3.2 94 0.4 NNE 11 13 6 7 1024.0 1024.0 0.2
26/05:00am 4.2 1.0 3.2 93 0.4 NNE 9 11 5 6 1023.8 1023.8 0.2
26/04:30am 4.5 1.0 3.3 92 0.5 NNE 11 15 6 8 1023.6 1023.6 0.2
26/04:00am 4.5 1.0 3.3 92 0.5 NNE 11 13 6 7 1023.7 1023.7 0.2
26/03:30am 4.2 1.1 3.5 95 0.3 NNE 9 15 5 8 1023.9 1023.9 0.2
26/03:00am 3.8 0.6 3.1 95 0.3 NNE 9 13 5 7 1024.0 1024.0 0.2
26/02:30am 4.1 0.9 3.2 94 0.4 NNE 9 13 5 7 1024.3 1024.3 0.2
26/02:00am 4.3 0.8 3.3 93 0.4 NE 11 15 6 8 1024.5 1024.5 0.2
26/01:30am 5.2 1.7 3.7 90 0.6 NNE 11 15 6 8 1024.9 1024.9 0.2
26/01:00am 5.5 2.5 4.3 92 0.5 NNE 9 13 5 7 1025.3 1025.3 0.2
26/12:30am 5.3 2.7 4.4 94 0.4 NNE 7 11 4 6 1025.6 1025.6 0.2
26/12:00am 5.3 2.4 4.4 94 0.4 NNE 9 13 5 7 1025.8 1025.8 0.2
 
Date/Time
WST
Temp
°C
App
Temp
°C
Dew
Point
Rel
Hum
%
Delta-T
°C
Wind Press
QNH
hPa
Press
MSL
hPa
Rain
since 9 am
mm
Dir
 
Spd
km/h
Gust
km/h
Spd
kts
Gust
kts
25/11:30pm 5.4 2.5 4.8 96 0.3 NNE 9 11 5 6 1026.0 1026.0 0.2
25/11:00pm 6.0 2.9 5.7 98 0.1 NE 11 15 6 8 1026.1 1026.1 0.2
25/10:30pm 5.6 2.4 5.3 98 0.1 NE 11 13 6 7 1026.2 1026.2 0.2
25/10:00pm 6.2 2.8 5.9 98 0.1 ENE 13 15 7 8 1026.3 1026.3 0.2
25/09:30pm 6.3 2.9 5.7 96 0.3 ENE 13 15 7 8 1026.5 1026.5 0.2
25/09:00pm 6.5 3.5 5.8 95 0.3 ENE 11 13 6 7 1026.6 1026.6 0.2
25/08:30pm 6.8 3.4 5.9 94 0.4 ENE 13 15 7 8 1026.7 1026.7 0.2
25/08:00pm 6.9 3.4 5.5 91 0.6 ENE 13 15 7 8 1026.6 1026.6 0.2
25/07:30pm 6.9 3.2 4.7 86 1.0 ENE 13 15 7 8 1026.4 1026.4 0.2
25/07:00pm 7.7 4.4 4.5 80 1.4 ENE 11 15 6 8 1026.5 1026.5 0.2
25/06:30pm 9.0 5.7 4.8 75 1.9 ENE 11 15 6 8 1026.2 1026.2 0.2
25/06:00pm 9.6 6.2 4.2 69 2.4 E 11 13 6 7 1026.1 1026.1 0.2
25/05:30pm 10.7 7.8 4.6 66 2.7 E 9 13 5 7 1025.9 1025.9 0.2
25/05:00pm 11.9 8.1 3.9 58 3.6 ENE 13 20 7 11 1025.7 1025.7 0.2
25/04:30pm 12.6 7.0 3.6 54 4.0 ENE 22 32 12 17 1025.5 1025.5 0.2
25/04:00pm 13.2 8.0 3.8 53 4.2 NE 20 30 11 16 1025.5 1025.5 0.2
25/03:30pm 13.3 7.4 3.7 52 4.3 NE 24 33 13 18 1025.6 1025.6 0.2
25/03:00pm 13.5 8.3 3.8 52 4.4 NE 20 32 11 17 1025.8 1025.8 0.2
25/02:30pm 13.8 8.3 4.1 52 4.4 NE 22 33 12 18 1026.1 1026.1 0.2
25/02:00pm 13.6 8.2 4.5 54 4.2 NE 22 33 12 18 1026.3 1026.3 0.2
25/01:30pm 13.4 9.0 4.6 55 4.1 ENE 17 30 9 16 1026.8 1026.8 0.2

Other Formats:

Comma delimited format used in spreadsheet applications
http://www.bom.gov.au/fwo/IDW60801/IDW60801.95635.axf

JavaScript Object Notation format (JSON) in row-major order
http://www.bom.gov.au/fwo/IDW60801/IDW60801.95635.json